Time;durP1;ratioP1;P1;durP2;ratioP2;P2;SDS_P1;SDS_P2;PMS_P1;PMS_P2;Temp;Humidity;BMP_temperature;BMP_pressure;BME280_temperature;BME280_humidity;BME280_pressure;Samples;Min_cycle;Max_cycle;Signal;HPM_P1;HPM_P2
2022/06/07 00:00:32;;;;;;;4.88;1.80;;;;;;;22.79;58.50;98876.81;5094882;28;20027;-50
2022/06/07 00:02:58;;;;;;;2.55;1.58;;;;;;;22.68;58.93;98886.78;5094715;28;20024;-49
2022/06/07 00:05:25;;;;;;;2.22;1.38;;;;;;;22.77;58.25;98884.34;5093353;28;20030;-49
2022/06/07 00:07:54;;;;;;;8.20;1.50;;;;;;;23.05;57.11;98880.19;5094715;28;20063;-50
2022/06/07 00:10:24;;;;;;;8.45;2.47;;;;;;;23.28;56.82;98881.38;5094630;28;20027;-49
2022/06/07 00:12:51;;;;;;;4.50;1.90;;;;;;;23.30;56.36;98881.09;5094608;28;20043;-50
2022/06/07 00:15:17;;;;;;;3.45;1.40;;;;;;;23.29;56.42;98882.97;5094554;28;20504;-50
2022/06/07 00:17:44;;;;;;;3.33;1.58;;;;;;;23.24;56.77;98883.03;5093149;28;20028;-48
2022/06/07 00:20:11;;;;;;;5.00;1.90;;;;;;;23.15;57.37;98878.53;5094742;28;20024;-50
2022/06/07 00:22:37;;;;;;;8.63;1.70;;;;;;;23.09;55.60;98878.56;5093014;28;20476;-49
2022/06/07 00:25:05;;;;;;;4.50;1.65;;;;;;;22.77;56.93;98870.94;5092997;28;20024;-49
2022/06/07 00:27:31;;;;;;;8.65;2.10;;;;;;;22.59;58.46;98864.34;5092985;28;20530;-49
2022/06/07 00:29:57;;;;;;;4.63;1.85;;;;;;;22.43;58.51;98857.47;5092906;28;20103;-49
2022/06/07 00:32:24;;;;;;;4.30;1.90;;;;;;;22.14;58.91;98868.78;5094174;28;20024;-49
2022/06/07 00:34:50;;;;;;;4.68;3.22;;;;;;;21.86;59.14;98867.50;5094475;28;20105;-49
2022/06/07 00:37:16;;;;;;;5.80;2.38;;;;;;;21.76;60.09;98865.66;5093845;28;20040;-48
2022/06/07 00:39:41;;;;;;;4.00;1.70;;;;;;;21.75;60.19;98858.69;5094114;28;20015;-49
2022/06/07 00:42:07;;;;;;;5.72;1.95;;;;;;;21.81;59.90;98871.00;5092599;28;20106;-49
2022/06/07 00:44:44;;;;;;;8.02;2.63;;;;;;;21.79;60.10;98874.97;5092130;28;20051;-48
2022/06/07 00:47:14;;;;;;;10.40;3.80;;;;;;;21.74;60.38;98873.13;5094139;28;20069;-50
2022/06/07 00:49:50;;;;;;;19.23;6.60;;;;;;;21.80;60.37;98869.38;5093900;28;20020;-49
2022/06/07 00:52:18;;;;;;;14.13;5.28;;;;;;;21.90;60.38;98864.00;5093755;28;20020;-49
2022/06/07 00:54:44;;;;;;;8.90;3.95;;;;;;;21.94;60.50;98865.06;5093790;28;20051;-49
2022/06/07 00:57:10;;;;;;;9.32;4.25;;;;;;;21.99;60.08;98864.25;5093703;28;20457;-50
2022/06/07 00:59:36;;;;;;;7.32;2.78;;;;;;;22.07;60.06;98866.41;5093715;28;20371;-48
2022/06/07 01:02:02;;;;;;;3.03;2.00;;;;;;;22.09;59.35;98868.78;5092199;28;20024;-49
2022/06/07 01:04:28;;;;;;;4.80;1.90;;;;;;;22.05;59.00;98863.16;5093569;28;20047;-50
2022/06/07 01:12:23;;;;;;;6.40;2.22;;;;;;;22.07;58.67;98868.25;5093490;28;19915;-48
2022/06/07 01:14:49;;;;;;;4.45;1.90;;;;;;;22.01;57.93;98861.31;5093420;28;20020;-49
2022/06/07 01:17:15;;;;;;;5.70;2.03;;;;;;;21.78;58.26;98849.34;5093288;28;20024;-49
2022/06/07 01:19:41;;;;;;;4.60;1.67;;;;;;;21.62;58.70;98840.56;5091985;28;20032;-49
2022/06/07 01:22:07;;;;;;;5.32;2.22;;;;;;;21.65;58.24;98842.66;5093190;28;20035;-49
2022/06/07 01:24:33;;;;;;;5.60;2.80;;;;;;;21.65;58.20;98843.50;5093167;28;20111;-49
2022/06/07 01:26:59;;;;;;;9.15;2.10;;;;;;;21.48;58.51;98841.09;5091816;28;20034;-49
2022/06/07 01:29:24;;;;;;;5.03;1.75;;;;;;;21.39;58.52;98841.84;5091790;28;20448;-48
2022/06/07 01:31:50;;;;;;;4.75;2.20;;;;;;;21.37;58.67;98836.81;5093023;28;20024;-49
2022/06/07 01:34:16;;;;;;;9.13;2.30;;;;;;;21.42;58.47;98839.47;5091807;28;20104;-50
2022/06/07 01:36:42;;;;;;;6.50;2.20;;;;;;;21.34;58.40;98840.78;5092720;28;20044;-49
2022/06/07 01:41:55;;;;;;;5.28;1.90;;;;;;;21.18;58.45;98838.41;5093154;28;20397;-49
2022/06/07 01:44:24;;;;;;;5.65;1.80;;;;;;;21.22;58.93;98840.25;5091680;28;20528;-49
2022/06/07 01:46:50;;;;;;;11.70;2.35;;;;;;;21.35;58.57;98836.28;5091453;28;20402;-49
2022/06/07 01:49:17;;;;;;;5.65;2.10;;;;;;;21.38;58.50;98842.94;5091384;28;20031;-49
2022/06/07 01:51:43;;;;;;;11.27;2.33;;;;;;;21.38;58.37;98845.63;5092596;28;20036;-49
2022/06/07 01:54:10;;;;;;;5.15;2.20;;;;;;;21.41;58.15;98839.72;5091340;28;20020;-49
2022/06/07 01:56:36;;;;;;;10.80;2.65;;;;;;;21.46;58.40;98831.75;5073557;28;20031;-49
2022/06/07 01:59:02;;;;;;;4.35;2.10;;;;;;;21.54;58.26;98831.22;5092474;28;20550;-49
2022/06/07 02:01:28;;;;;;;5.35;2.60;;;;;;;21.46;58.32;98823.75;5092525;28;20020;-49
2022/06/07 02:03:54;;;;;;;5.32;1.90;;;;;;;21.37;58.40;98826.13;5092412;28;20032;-49
2022/06/07 02:06:20;;;;;;;8.95;2.15;;;;;;;21.30;58.37;98830.91;5091112;28;20051;-49
2022/06/07 02:08:46;;;;;;;6.68;2.40;;;;;;;21.35;58.11;98828.25;5092332;28;20436;-48
2022/06/07 02:11:21;;;;;;;12.13;3.00;;;;;;;21.45;58.25;98822.94;5092361;28;20049;-48
2022/06/07 02:13:48;;;;;;;6.63;2.10;;;;;;;21.53;57.64;98827.75;5092652;28;20401;-49
2022/06/07 02:16:15;;;;;;;5.05;1.92;;;;;;;21.53;58.17;98825.06;5092198;28;20027;-49
2022/06/07 02:18:43;;;;;;;9.90;3.40;;;;;;;21.57;58.40;98813.84;5092325;28;20020;-49
2022/06/07 02:21:09;;;;;;;5.00;2.33;;;;;;;21.53;58.42;98819.75;5092136;28;20095;-48
2022/06/07 02:23:37;;;;;;;5.55;1.90;;;;;;;21.58;58.45;98824.25;5092059;28;20513;-49
2022/06/07 02:26:32;;;;;;;3.30;1.65;;;;;;;21.65;57.91;98818.63;5090783;28;20032;-49
2022/06/07 02:29:06;;;;;;;3.85;2.63;;;;;;;21.50;57.64;98819.47;5092197;28;20028;-49
2022/06/07 02:31:34;;;;;;;5.82;2.10;;;;;;;21.44;58.07;98826.66;5092031;28;20566;-49
2022/06/07 02:34:01;;;;;;;6.20;2.30;;;;;;;21.48;57.66;98816.25;5090720;28;20031;-49
2022/06/07 02:36:31;;;;;;;6.22;2.92;;;;;;;21.43;57.97;98825.09;5091734;28;20363;-48
2022/06/07 02:38:58;;;;;;;13.00;2.30;;;;;;;21.34;58.60;98819.44;5092009;28;20498;-48
2022/06/07 02:41:26;;;;;;;7.47;2.35;;;;;;;21.47;58.74;98817.31;5090606;28;20547;-48
2022/06/07 02:43:53;;;;;;;7.85;4.78;;;;;;;21.50;58.16;98811.47;5090540;28;20019;-47
2022/06/07 02:46:19;;;;;;;12.65;2.75;;;;;;;21.47;57.93;98817.31;5090564;28;20126;-47
2022/06/07 02:48:45;;;;;;;16.45;2.63;;;;;;;21.42;58.21;98820.78;5090532;28;20111;-47
2022/06/07 02:51:14;;;;;;;9.23;2.05;;;;;;;21.32;58.12;98818.09;5091851;28;20107;-47
2022/06/07 02:53:40;;;;;;;7.22;2.50;;;;;;;21.15;58.44;98816.50;5091866;28;20030;-49
2022/06/07 02:56:06;;;;;;;5.72;2.20;;;;;;;21.03;58.52;98820.50;5090473;28;20119;-49
2022/06/07 02:58:32;;;;;;;5.10;2.00;;;;;;;21.06;58.79;98814.63;5091773;28;20050;-49
2022/06/07 03:00:58;;;;;;;4.07;2.22;;;;;;;21.18;58.29;98817.84;5090463;28;20035;-50
2022/06/07 03:03:26;;;;;;;8.52;2.17;;;;;;;21.19;58.15;98811.44;5090380;28;20077;-49
2022/06/07 03:05:52;;;;;;;5.38;2.20;;;;;;;21.10;58.26;98818.38;5091696;28;20025;-49
2022/06/07 03:08:18;;;;;;;6.78;2.10;;;;;;;20.93;58.94;98837.31;5093873;28;20072;-49
2022/06/07 03:10:48;;;;;;;6.93;2.35;;;;;;;20.86;59.60;98842.88;5095776;28;20178;-49
2022/06/07 03:13:15;;;;;;;8.60;2.05;;;;;;;20.94;59.82;98842.34;5096292;28;20106;-49
2022/06/07 03:15:41;;;;;;;6.88;1.90;;;;;;;21.10;59.71;98840.50;5095729;28;20023;-50
2022/06/07 03:18:08;;;;;;;5.90;2.50;;;;;;;21.31;59.51;98841.34;5095670;28;20144;-49
2022/06/07 03:20:33;;;;;;;5.47;2.10;;;;;;;21.61;58.57;98839.75;5094319;28;20029;-49
2022/06/07 03:22:59;;;;;;;7.03;2.42;;;;;;;21.69;58.03;98833.06;5095471;28;20020;-48
2022/06/07 03:25:26;;;;;;;9.82;2.45;;;;;;;21.50;58.31;98828.28;5094163;28;20035;-49
2022/06/07 03:27:51;;;;;;;7.15;2.08;;;;;;;21.26;58.95;98824.50;5095495;28;20041;-49
2022/06/07 03:30:18;;;;;;;9.45;2.33;;;;;;;21.01;59.79;98822.66;5094084;28;20054;-49
2022/06/07 03:32:44;;;;;;;5.50;2.70;;;;;;;20.66;60.23;98837.50;5095410;28;20103;-49
2022/06/07 03:35:11;;;;;;;6.47;2.28;;;;;;;20.25;61.09;98845.31;5095283;28;20024;-49
2022/06/07 03:37:38;;;;;;;5.68;2.20;;;;;;;20.06;61.84;98835.13;5093562;28;20097;-49
2022/06/07 03:40:09;;;;;;;9.30;2.40;;;;;;;20.02;62.49;98834.03;5095226;28;20020;-49
2022/06/07 03:42:35;;;;;;;5.35;2.42;;;;;;;20.09;62.13;98834.59;5093820;28;20028;-49
2022/06/07 03:45:01;;;;;;;11.10;2.90;;;;;;;20.00;62.37;98841.47;5093809;28;20406;-49
2022/06/07 03:47:27;;;;;;;5.22;2.33;;;;;;;19.99;62.69;98844.38;5093804;28;20077;-49
2022/06/07 03:49:53;;;;;;;3.88;2.33;;;;;;;19.98;62.71;98840.09;5093743;28;20066;-49
2022/06/07 03:52:19;;;;;;;5.75;2.35;;;;;;;19.87;62.99;98842.72;5095004;28;20117;-49
2022/06/07 03:54:45;;;;;;;7.78;2.63;;;;;;;19.86;63.45;98843.78;5094947;28;20055;-49
2022/06/07 03:57:12;;;;;;;7.30;2.85;;;;;;;19.88;63.44;98844.34;5094847;28;20555;-49
2022/06/07 03:59:38;;;;;;;10.75;2.72;;;;;;;19.84;63.41;98848.56;5093580;28;20024;-49
2022/06/07 04:02:05;;;;;;;6.47;2.40;;;;;;;19.83;63.39;98859.47;5094702;28;20027;-49
2022/06/07 04:04:31;;;;;;;9.00;3.10;;;;;;;19.74;63.44;98861.81;5094777;28;20031;-49
2022/06/07 04:09:41;;;;;;;4.78;2.35;;;;;;;19.90;62.92;98850.22;5094748;28;20034;-49
2022/06/07 04:12:12;;;;;;;3.63;2.33;;;;;;;19.94;62.79;98850.47;5094587;28;20028;-49
2022/06/07 04:14:40;;;;;;;8.57;2.53;;;;;;;19.84;62.91;98848.56;5094648;28;20028;-48
2022/06/07 04:17:07;;;;;;;9.68;2.08;;;;;;;19.80;63.04;98851.97;5094452;28;20024;-49
2022/06/07 04:19:38;;;;;;;7.25;2.08;;;;;;;19.73;62.95;98853.00;5092308;28;20039;-49
2022/06/07 04:22:05;;;;;;;6.18;2.40;;;;;;;19.61;62.73;98848.91;5094308;28;20028;-49
2022/06/07 04:24:32;;;;;;;5.10;2.50;;;;;;;19.67;63.11;98856.66;5094346;28;20030;-49
2022/06/07 04:26:58;;;;;;;11.38;2.80;;;;;;;19.68;62.71;98857.47;5092988;28;20069;-49
2022/06/07 04:29:25;;;;;;;6.97;2.53;;;;;;;19.50;63.17;98861.34;5094303;28;20055;-49
2022/06/07 04:31:51;;;;;;;6.10;2.80;;;;;;;19.35;63.48;98859.34;5092911;28;20500;-49
2022/06/07 04:34:18;;;;;;;3.33;2.13;;;;;;;19.22;63.89;98855.25;5092941;28;20023;-49
2022/06/07 04:36:44;;;;;;;7.68;3.08;;;;;;;19.19;64.55;98857.59;5093593;28;20510;-49
2022/06/07 04:39:12;;;;;;;9.70;2.92;;;;;;;19.17;65.03;98857.84;5094172;28;20024;-49
2022/06/07 04:41:38;;;;;;;11.32;2.97;;;;;;;19.30;65.07;98859.31;5093995;28;20055;-49
2022/06/07 04:44:04;;;;;;;13.02;2.53;;;;;;;19.46;64.39;98857.59;5094075;28;20052;-49
2022/06/07 04:46:30;;;;;;;12.00;3.17;;;;;;;19.44;64.03;98855.19;5094048;28;20028;-49
2022/06/07 04:48:56;;;;;;;9.55;3.65;;;;;;;19.46;64.17;98861.03;5093928;28;20061;-49
2022/06/07 04:51:33;;;;;;;18.45;4.53;;;;;;;19.44;64.58;98873.00;5093941;28;20016;-49
2022/06/07 04:54:01;;;;;;;11.95;4.20;;;;;;;19.54;64.08;98870.44;5093797;28;20032;-49
2022/06/07 04:56:30;;;;;;;4.53;2.90;;;;;;;20.58;62.26;98867.31;5093779;28;20012;-49
2022/06/07 04:58:57;;;;;;;15.10;4.68;;;;;;;22.19;57.60;98855.38;5092414;28;20020;-49
2022/06/07 05:01:27;;;;;;;8.88;2.30;;;;;;;23.73;53.46;98851.81;5092337;28;20017;-49
2022/06/07 05:03:53;;;;;;;9.20;2.83;;;;;;;24.91;49.83;98848.56;5093554;28;20497;-47
2022/06/07 05:06:22;;;;;;;7.72;2.33;;;;;;;25.83;47.47;98850.88;5093593;28;20024;-50
2022/06/07 05:08:47;;;;;;;9.65;2.17;;;;;;;26.45;45.55;98843.22;5093537;28;20027;-49
2022/06/07 05:11:13;;;;;;;5.18;2.10;;;;;;;27.02;44.06;98837.41;5092192;28;20019;-49
2022/06/07 05:13:39;;;;;;;9.98;2.50;;;;;;;27.67;42.69;98836.13;5093707;28;20043;-49
2022/06/07 05:16:05;;;;;;;12.60;3.08;;;;;;;27.96;42.30;98839.44;5093386;28;20028;-49
2022/06/07 05:18:31;;;;;;;7.43;2.35;;;;;;;28.18;41.96;98852.84;5093395;28;20020;-49
2022/06/07 05:20:57;;;;;;;6.13;2.38;;;;;;;28.74;40.31;98844.28;5093267;28;20020;-49
2022/06/07 05:23:22;;;;;;;15.90;3.60;;;;;;;29.21;40.28;98850.63;5093186;28;20111;-49
2022/06/07 05:26:06;;;;;;;13.35;3.10;;;;;;;29.77;38.88;98850.69;5093187;28;20044;-49
2022/06/07 05:28:33;;;;;;;8.40;2.58;;;;;;;30.04;38.53;98846.78;5093238;28;20497;-50
2022/06/07 05:30:59;;;;;;;8.32;2.55;;;;;;;30.45;37.09;98844.50;5091986;28;20069;-49
2022/06/07 05:33:24;;;;;;;7.18;2.33;;;;;;;30.40;36.85;98841.97;5093071;28;20459;-48
2022/06/07 05:35:50;;;;;;;4.65;2.10;;;;;;;30.66;36.65;98842.59;5091674;28;20444;-48
2022/06/07 05:38:16;;;;;;;9.02;2.42;;;;;;;31.25;34.83;98838.94;5091421;28;20147;-48
2022/06/07 05:40:42;;;;;;;6.30;2.97;;;;;;;31.48;34.63;98835.09;5092846;28;20023;-48
2022/06/07 05:43:11;;;;;;;13.30;2.45;;;;;;;31.87;33.61;98838.28;5092814;28;20508;-48
2022/06/07 05:45:38;;;;;;;3.72;2.15;;;;;;;31.22;34.09;98844.25;5092828;28;20020;-47
2022/06/07 05:48:05;;;;;;;14.60;3.58;;;;;;;30.61;36.09;98847.44;5092815;28;20512;-48
2022/06/07 05:50:31;;;;;;;10.02;3.45;;;;;;;31.91;35.90;98842.69;5091421;28;20111;-47
2022/06/07 05:52:57;;;;;;;15.25;4.15;;;;;;;33.06;32.76;98838.00;5091327;28;20483;-48
2022/06/07 05:55:25;;;;;;;6.35;2.50;;;;;;;33.11;30.98;98839.75;5092604;28;20069;-48
2022/06/07 05:57:54;;;;;;;7.10;2.47;;;;;;;32.71;31.50;98841.31;5092642;28;20072;-48
2022/06/07 06:00:21;;;;;;;11.45;4.32;;;;;;;32.86;31.52;98836.28;5092503;28;20051;-48
2022/06/07 06:02:47;;;;;;;9.18;1.98;;;;;;;33.56;30.38;98833.91;5092468;28;20063;-48
2022/06/07 06:05:15;;;;;;;8.98;2.63;;;;;;;34.45;28.69;98844.59;5092498;28;20038;-48
2022/06/07 06:10:39;;;;;;;9.30;2.70;;;;;;;35.08;27.66;98855.28;5037653;28;20045;-48
2022/06/07 06:13:05;;;;;;;3.65;1.58;;;;;;;34.49;27.27;98851.72;5049883;28;20041;-48
2022/06/07 06:15:31;;;;;;;7.43;1.50;;;;;;;32.38;30.40;98850.41;5049871;28;20033;-48
2022/06/07 06:17:57;;;;;;;6.55;1.52;;;;;;;30.92;32.59;98862.53;5049766;28;20071;-48
2022/06/07 06:20:23;;;;;;;3.97;1.50;;;;;;;29.48;34.81;98860.28;5049696;28;20060;-48
2022/06/07 06:22:49;;;;;;;6.50;2.03;;;;;;;28.16;37.22;98870.47;5049623;28;20043;-48
2022/06/07 06:25:15;;;;;;;9.73;2.45;;;;;;;27.60;38.65;98868.13;5032966;28;20543;-47
2022/06/07 06:27:41;;;;;;;8.60;1.83;;;;;;;27.09;39.50;98867.44;5049591;28;20044;-48
2022/06/07 06:30:08;;;;;;;4.50;2.47;;;;;;;26.25;41.28;98881.31;5049687;28;20035;-48
2022/06/07 06:32:34;;;;;;;12.63;2.97;;;;;;;25.61;43.08;98875.72;5049614;28;20048;-47
2022/06/07 06:35:00;;;;;;;10.25;2.92;;;;;;;25.49;43.81;98882.38;5049534;28;20108;-48
2022/06/07 06:37:27;;;;;;;5.97;1.80;;;;;;;25.43;43.95;98878.16;5032596;28;20637;-48
2022/06/07 06:39:53;;;;;;;4.90;2.00;;;;;;;25.33;44.38;98880.22;5049414;28;20056;-48
2022/06/07 06:42:20;;;;;;;12.00;4.07;;;;;;;25.24;46.44;98875.50;5048878;28;20025;-48
2022/06/07 06:44:46;;;;;;;10.93;3.63;;;;;;;25.09;46.29;98878.38;5032694;28;20500;-47
2022/06/07 06:47:13;;;;;;;9.88;2.40;;;;;;;25.04;46.16;98883.84;5087845;28;20405;-47
2022/06/07 06:49:41;;;;;;;7.22;2.00;;;;;;;25.21;45.60;98886.00;5091916;28;20020;-48
2022/06/07 06:52:09;;;;;;;5.85;1.80;;;;;;;25.26;45.22;98884.06;5090587;28;20024;-48
2022/06/07 06:54:36;;;;;;;10.82;2.15;;;;;;;25.49;44.91;98889.63;5091819;28;20024;-48
2022/06/07 06:57:03;;;;;;;8.23;2.42;;;;;;;25.83;44.13;98883.94;5091771;28;20020;-48
2022/06/07 06:59:29;;;;;;;8.25;1.98;;;;;;;26.06;43.80;98889.50;5090492;28;20028;-48
2022/06/07 07:01:55;;;;;;;5.53;2.17;;;;;;;27.42;41.90;98878.00;5091939;28;20024;-48
2022/06/07 07:04:21;;;;;;;8.10;2.10;;;;;;;28.98;38.72;98877.00;5091669;28;20028;-48
2022/06/07 07:06:48;;;;;;;7.28;1.83;;;;;;;30.83;35.37;98876.91;5090381;28;20029;-48
2022/06/07 07:09:17;;;;;;;6.72;2.00;;;;;;;32.34;33.14;98875.91;5090384;28;20056;-48
2022/06/07 07:11:51;;;;;;;7.18;2.28;;;;;;;33.94;30.56;98875.31;5091605;28;20027;-49
2022/06/07 07:14:17;;;;;;;11.40;2.20;;;;;;;35.29;28.75;98871.28;5091775;28;20036;-50
2022/06/07 07:16:50;;;;;;;8.93;2.50;;;;;;;36.58;26.87;98867.97;5090279;28;20039;-49
2022/06/07 07:19:17;;;;;;;5.65;2.05;;;;;;;37.60;25.25;98869.97;5091614;28;20028;-50
2022/06/07 07:21:46;;;;;;;9.18;2.33;;;;;;;38.34;23.81;98874.47;5091543;28;20455;-50
2022/06/07 07:24:16;;;;;;;9.90;2.25;;;;;;;38.89;23.13;98877.09;5091567;28;20020;-50
2022/06/07 07:26:46;;;;;;;5.75;2.03;;;;;;;38.94;23.34;98878.69;5090219;28;20047;-48
2022/06/07 07:29:15;;;;;;;5.22;1.63;;;;;;;39.34;22.50;98866.69;5091583;28;20028;-49
2022/06/07 07:31:44;;;;;;;6.63;2.33;;;;;;;39.97;22.20;98871.88;5090211;28;20046;-50
2022/06/07 07:34:14;;;;;;;11.73;2.53;;;;;;;40.11;22.16;98879.31;5091525;28;20032;-48
2022/06/07 07:36:44;;;;;;;9.25;2.55;;;;;;;39.01;22.91;98873.25;5091214;28;20020;-50
2022/06/07 07:39:10;;;;;;;8.52;2.40;;;;;;;37.72;24.57;98875.94;5091486;28;20032;-50
2022/06/07 07:41:38;;;;;;;7.15;2.72;;;;;;;37.45;24.94;98875.28;5091374;28;20100;-51
2022/06/07 07:44:07;;;;;;;3.58;1.73;;;;;;;38.19;23.39;98865.34;5091274;28;20074;-51
2022/06/07 07:46:36;;;;;;;10.15;2.13;;;;;;;39.19;21.71;98864.28;5090037;28;20024;-48
2022/06/07 07:49:03;;;;;;;7.15;1.50;;;;;;;39.79;20.64;98857.31;5090054;28;20050;-49
2022/06/07 07:51:35;;;;;;;4.38;1.67;;;;;;;39.25;20.73;98862.72;5091286;28;20107;-48
2022/06/07 07:54:03;;;;;;;3.83;1.77;;;;;;;38.67;20.95;98867.22;5092444;28;20024;-49
2022/06/07 07:56:30;;;;;;;3.95;1.50;;;;;;;39.89;20.17;98859.31;5094941;28;20024;-50
2022/06/07 07:58:57;;;;;;;5.40;1.52;;;;;;;40.40;19.31;98854.53;5094927;28;20023;-48
2022/06/07 08:01:28;;;;;;;7.55;1.83;;;;;;;40.87;18.84;98853.19;5094870;28;20458;-50
2022/06/07 08:03:57;;;;;;;6.40;2.38;;;;;;;41.65;18.33;98850.38;5094784;28;20031;-50
2022/06/07 08:06:24;;;;;;;7.90;1.80;;;;;;;41.70;17.85;98847.97;5094997;28;20024;-49
2022/06/07 08:08:52;;;;;;;4.25;1.40;;;;;;;41.82;17.54;98852.19;5093433;28;20016;-50
2022/06/07 08:11:20;;;;;;;8.70;2.22;;;;;;;42.58;17.29;98849.50;5093388;28;20028;-48
2022/06/07 08:13:46;;;;;;;7.55;2.22;;;;;;;43.26;16.71;98850.56;5094850;28;20387;-50
2022/06/07 08:16:13;;;;;;;6.40;1.80;;;;;;;43.68;15.81;98848.38;5094818;28;20028;-50
2022/06/07 08:18:41;;;;;;;5.28;1.45;;;;;;;43.90;15.95;98842.47;5094617;28;20497;-50
2022/06/07 08:21:20;;;;;;;10.35;1.70;;;;;;;43.91;15.95;98842.06;5094421;28;20393;-50
2022/06/07 08:23:47;;;;;;;5.18;1.65;;;;;;;43.38;15.85;98855.53;5094378;28;20028;-50
2022/06/07 08:26:14;;;;;;;14.32;2.67;;;;;;;43.50;15.68;98845.88;5093335;28;20034;-50
2022/06/07 08:28:40;;;;;;;7.88;2.33;;;;;;;44.11;15.51;98839.31;5094317;28;20020;-49
2022/06/07 08:31:18;;;;;;;7.18;1.90;;;;;;;44.73;14.54;98830.63;5094682;28;20024;-50
2022/06/07 08:39:13;;;;;;;10.73;1.95;;;;;;;44.83;14.62;98830.38;5094495;28;20039;-50
2022/06/07 08:41:59;;;;;;;6.70;1.52;;;;;;;44.45;14.56;98833.53;5094135;28;20020;-50
2022/06/07 08:44:51;;;;;;;8.40;2.00;;;;;;;41.63;16.74;98836.22;5094103;28;20047;-49
2022/06/07 08:47:46;;;;;;;10.43;1.95;;;;;;;38.68;18.83;98836.66;5094022;28;20370;-50
2022/06/07 08:50:26;;;;;;;17.70;2.40;;;;;;;36.52;21.70;98841.31;5094032;28;20020;-49
2022/06/07 08:52:58;;;;;;;12.25;2.75;;;;;;;35.00;23.25;98839.94;5093892;28;20040;-49
2022/06/07 08:55:46;;;;;;;9.80;2.72;;;;;;;33.72;24.76;98839.41;5093808;28;20046;-50
2022/06/07 08:58:28;;;;;;;17.10;2.75;;;;;;;34.31;25.12;98845.88;5092700;28;20406;-49
2022/06/07 09:01:03;;;;;;;7.97;1.77;;;;;;;34.25;23.58;98836.41;5093763;28;20046;-49
2022/06/07 09:03:47;;;;;;;9.85;2.22;;;;;;;34.98;23.37;98836.78;5092523;28;20077;-48
2022/06/07 09:06:23;;;;;;;10.73;3.38;;;;;;;36.13;22.05;98819.66;5092026;28;20032;-48
2022/06/07 09:08:54;;;;;;;3.67;1.77;;;;;;;37.20;20.19;98824.97;5093541;28;20060;-49
2022/06/07 09:14:20;;;;;;;10.70;2.88;;;;;;;39.00;18.18;98818.75;5093749;28;20532;-50
2022/06/07 09:16:46;;;;;;;26.70;15.07;;;;;;;40.05;18.01;98804.69;5093349;28;20042;-51
2022/06/07 09:19:17;;;;;;;17.75;13.48;;;;;;;39.96;17.04;98807.06;5093410;28;20485;-50
2022/06/07 09:21:45;;;;;;;29.73;10.15;;;;;;;38.91;18.29;98816.34;5093354;28;20395;-50
2022/06/07 09:24:33;;;;;;;9.63;2.50;;;;;;;37.33;19.56;98813.38;5092012;28;20020;-48
2022/06/07 09:27:21;;;;;;;9.13;2.97;;;;;;;35.74;21.09;98803.47;5093230;28;20103;-49
2022/06/07 09:29:56;;;;;;;9.65;2.90;;;;;;;34.71;22.39;98825.75;5093242;28;20032;-50
2022/06/07 09:32:27;;;;;;;8.32;2.60;;;;;;;33.93;22.47;98820.06;5093366;28;20132;-50
2022/06/07 09:35:00;;;;;;;12.10;2.08;;;;;;;33.14;23.56;98812.66;5091863;28;20032;-49
2022/06/07 09:37:51;;;;;;;10.93;2.60;;;;;;;32.30;24.45;98810.59;5092877;28;20509;-48
2022/06/07 09:40:34;;;;;;;16.38;2.72;;;;;;;31.55;25.68;98809.00;5092633;28;20039;-49
2022/06/07 09:43:27;;;;;;;11.73;1.83;;;;;;;31.24;26.19;98812.16;5091618;28;20038;-49
2022/06/07 09:45:58;;;;;;;20.38;2.25;;;;;;;30.80;27.19;98817.94;5090462;28;20097;-49
2022/06/07 09:48:35;;;;;;;6.78;1.80;;;;;;;30.50;27.90;98805.59;5091571;28;20039;-49
2022/06/07 09:51:06;;;;;;;10.27;1.70;;;;;;;31.03;28.04;98804.88;5092820;28;20421;-49
2022/06/07 09:54:03;;;;;;;5.88;1.65;;;;;;;32.41;26.15;98808.19;5092751;28;20024;-50
2022/06/07 09:56:59;;;;;;;11.18;1.80;;;;;;;33.38;24.98;98808.19;5091935;28;20040;-49
2022/06/07 09:59:58;;;;;;;6.10;1.60;;;;;;;34.66;23.60;98804.19;5092701;28;20594;-50
2022/06/07 10:02:42;;;;;;;6.78;1.90;;;;;;;36.68;21.63;98797.38;5092567;28;20032;-49
2022/06/07 10:05:17;;;;;;;9.88;2.78;;;;;;;38.17;19.72;98793.66;5092506;28;20032;-50
2022/06/07 10:07:52;;;;;;;8.90;1.70;;;;;;;39.20;18.58;98795.28;5091193;28;20028;-50
2022/06/07 10:10:48;;;;;;;6.57;2.10;;;;;;;39.82;18.06;98794.09;5092500;28;20528;-49
2022/06/07 10:13:51;;;;;;;6.07;1.90;;;;;;;40.05;17.54;98790.16;5092498;28;20028;-50
2022/06/07 10:16:20;;;;;;;2.90;1.63;;;;;;;40.30;17.82;98785.38;5046107;28;20046;-48
2022/06/07 10:19:13;;;;;;;5.45;2.08;;;;;;;40.22;17.64;98777.53;5092249;28;20024;-48
2022/06/07 10:22:04;;;;;;;8.95;2.03;;;;;;;40.44;17.24;98775.53;5090994;28;20039;-50
2022/06/07 10:24:41;;;;;;;9.48;3.55;;;;;;;40.68;17.38;98768.34;5092260;28;20523;-49
2022/06/07 10:27:23;;;;;;;4.72;2.10;;;;;;;40.62;17.58;98773.47;5092148;28;20050;-48
2022/06/07 10:30:15;;;;;;;7.80;1.98;;;;;;;40.83;17.54;98766.31;5090845;28;20027;-49
2022/06/07 10:32:59;;;;;;;2.88;1.60;;;;;;;41.01;17.01;98760.69;5092160;28;20035;-47
2022/06/07 10:36:13;;;;;;;7.95;2.08;;;;;;;41.19;17.06;98761.34;5092092;28;20051;-49
2022/06/07 10:39:14;;;;;;;16.58;3.80;;;;;;;40.98;17.16;98762.28;5086197;28;20047;-50
2022/06/07 10:42:09;;;;;;;5.38;2.20;;;;;;;40.61;17.19;98758.16;5091951;28;20017;-49
2022/06/07 10:44:47;;;;;;;3.55;1.80;;;;;;;40.36;17.46;98750.00;5091965;28;20028;-50
2022/06/07 10:47:28;;;;;;;3.63;1.17;;;;;;;40.57;16.42;98745.59;5090709;28;20111;-48
2022/06/07 10:50:14;;;;;;;5.25;1.10;;;;;;;40.91;15.95;98741.09;5090614;28;20516;-49
2022/06/07 10:52:48;;;;;;;5.55;1.58;;;;;;;41.05;16.08;98736.66;5091931;28;20021;-47
2022/06/07 10:55:35;;;;;;;5.70;2.00;;;;;;;40.18;16.45;98736.31;5091826;28;20574;-49
2022/06/07 10:58:25;;;;;;;8.00;2.03;;;;;;;38.24;17.96;98741.63;5091817;28;20036;-48
2022/06/07 11:00:57;;;;;;;4.30;1.90;;;;;;;36.24;20.32;98740.59;5091810;28;20020;-48
2022/06/07 11:03:32;;;;;;;7.90;2.15;;;;;;;34.69;21.70;98746.25;5090425;28;20024;-49
2022/06/07 11:09:27;;;;;;;5.28;1.60;;;;;;;32.69;22.57;98750.41;5091768;28;20038;-50
2022/06/07 11:11:59;;;;;;;7.05;1.42;;;;;;;32.45;22.38;98746.59;5084362;28;20036;-50
2022/06/07 11:14:46;;;;;;;7.50;1.35;;;;;;;32.28;22.37;98739.53;5091793;28;20417;-49
2022/06/07 11:17:30;;;;;;;3.05;1.30;;;;;;;33.14;22.04;98732.97;5091738;28;20047;-48
2022/06/07 11:20:00;;;;;;;5.03;1.15;;;;;;;34.98;19.53;98735.88;5090380;28;20123;-51
2022/06/07 11:22:36;;;;;;;39.20;3.72;;;;;;;36.41;18.31;98720.09;5091574;28;20035;-48
2022/06/07 11:25:30;;;;;;;2.80;0.90;;;;;;;37.50;16.84;98726.28;5091550;28;20028;-49
2022/06/07 11:27:59;;;;;;;3.72;1.25;;;;;;;37.18;17.00;98724.84;5092663;28;20540;-50
2022/06/07 11:30:42;;;;;;;3.67;1.20;;;;;;;36.79;16.97;98724.47;5095484;28;20505;-49
2022/06/07 11:33:43;;;;;;;8.32;2.47;;;;;;;35.96;18.36;98728.88;5095533;28;20024;-50
2022/06/07 11:36:12;;;;;;;15.05;2.83;;;;;;;34.82;18.80;98719.59;5095354;28;20028;-49
2022/06/07 11:39:17;;;;;;;8.32;1.90;;;;;;;34.09;19.30;98729.38;5095095;28;20549;-48
2022/06/07 11:41:47;;;;;;;14.30;2.65;;;;;;;35.09;18.45;98722.41;5093998;28;20085;-49
2022/06/07 11:44:34;;;;;;;13.00;3.10;;;;;;;36.74;16.93;98719.31;5095218;28;20693;-51
2022/06/07 11:47:09;;;;;;;5.95;2.05;;;;;;;38.33;15.35;98711.88;5095230;28;20123;-51
2022/06/07 11:49:40;;;;;;;10.10;1.95;;;;;;;38.85;14.59;98708.13;5095100;28;20028;-51
2022/06/07 11:52:12;;;;;;;12.48;1.80;;;;;;;37.88;15.37;98703.06;5095017;28;20398;-50
2022/06/07 11:54:43;;;;;;;7.70;1.63;;;;;;;37.25;15.68;98694.03;5095050;28;20505;-50
2022/06/07 11:57:39;;;;;;;5.85;1.20;;;;;;;37.65;15.80;98691.56;5094981;28;20024;-50
2022/06/07 12:00:20;;;;;;;23.10;2.83;;;;;;;37.98;14.56;98688.63;5094872;28;20028;-50
2022/06/07 12:03:08;;;;;;;22.20;3.30;;;;;;;37.51;14.95;98687.56;5094768;28;20017;-50
2022/06/07 12:05:47;;;;;;;15.45;2.10;;;;;;;36.45;15.48;98688.91;5094542;28;20076;-49
2022/06/07 12:08:15;;;;;;;21.65;1.83;;;;;;;35.08;16.33;98691.63;5094882;28;20055;-50
2022/06/07 12:10:55;;;;;;;22.50;3.30;;;;;;;34.29;17.53;98692.88;5094684;28;20448;-50
2022/06/07 12:13:52;;;;;;;12.18;1.35;;;;;;;35.09;16.88;98684.22;5094714;28;20024;-49
2022/06/07 12:16:38;;;;;;;9.77;1.60;;;;;;;36.41;16.40;98679.88;5094619;28;20114;-51